sensor_id;sensor_type;location;lat;lon;timestamp;P1;durP1;ratioP1;P2;durP2;ratioP2
10045;SDS011;5063;50.878;4.742;2023-12-20T00:01:21;6.43;;;2.27;;
10045;SDS011;5063;50.878;4.742;2023-12-20T00:03:47;8.57;;;2.30;;
10045;SDS011;5063;50.878;4.742;2023-12-20T00:06:13;13.50;;;2.70;;
10045;SDS011;5063;50.878;4.742;2023-12-20T00:08:38;10.53;;;2.97;;
10045;SDS011;5063;50.878;4.742;2023-12-20T00:11:04;8.83;;;2.40;;
10045;SDS011;5063;50.878;4.742;2023-12-20T00:13:30;8.57;;;2.50;;
10045;SDS011;5063;50.878;4.742;2023-12-20T00:15:56;10.10;;;2.57;;
10045;SDS011;5063;50.878;4.742;2023-12-20T00:18:23;9.80;;;2.97;;
10045;SDS011;5063;50.878;4.742;2023-12-20T00:20:48;6.33;;;3.03;;
10045;SDS011;5063;50.878;4.742;2023-12-20T00:23:14;6.13;;;2.73;;
10045;SDS011;5063;50.878;4.742;2023-12-20T00:25:40;11.10;;;2.97;;
10045;SDS011;5063;50.878;4.742;2023-12-20T00:28:06;8.57;;;2.83;;
10045;SDS011;5063;50.878;4.742;2023-12-20T00:30:31;9.43;;;2.30;;
10045;SDS011;5063;50.878;4.742;2023-12-20T00:32:57;9.60;;;2.57;;
10045;SDS011;5063;50.878;4.742;2023-12-20T00:35:23;7.67;;;2.70;;
10045;SDS011;5063;50.878;4.742;2023-12-20T00:37:49;12.23;;;2.87;;
10045;SDS011;5063;50.878;4.742;2023-12-20T00:40:15;5.50;;;2.00;;
10045;SDS011;5063;50.878;4.742;2023-12-20T00:42:41;6.40;;;2.40;;
10045;SDS011;5063;50.878;4.742;2023-12-20T00:45:07;15.47;;;3.17;;
10045;SDS011;5063;50.878;4.742;2023-12-20T00:47:33;11.83;;;2.83;;
10045;SDS011;5063;50.878;4.742;2023-12-20T00:49:58;10.93;;;2.57;;
10045;SDS011;5063;50.878;4.742;2023-12-20T00:52:24;10.73;;;2.40;;
10045;SDS011;5063;50.878;4.742;2023-12-20T00:54:50;12.40;;;3.07;;
10045;SDS011;5063;50.878;4.742;2023-12-20T00:57:17;6.13;;;2.30;;
10045;SDS011;5063;50.878;4.742;2023-12-20T00:59:42;8.93;;;2.50;;
10045;SDS011;5063;50.878;4.742;2023-12-20T01:02:08;8.63;;;2.43;;
10045;SDS011;5063;50.878;4.742;2023-12-20T01:04:35;6.80;;;1.93;;
10045;SDS011;5063;50.878;4.742;2023-12-20T01:07:01;5.83;;;2.60;;
10045;SDS011;5063;50.878;4.742;2023-12-20T01:09:27;8.10;;;2.60;;
10045;SDS011;5063;50.878;4.742;2023-12-20T01:11:53;8.37;;;2.57;;
10045;SDS011;5063;50.878;4.742;2023-12-20T01:14:18;12.93;;;2.50;;
10045;SDS011;5063;50.878;4.742;2023-12-20T01:16:44;10.33;;;2.20;;
10045;SDS011;5063;50.878;4.742;2023-12-20T01:19:10;7.70;;;3.33;;
10045;SDS011;5063;50.878;4.742;2023-12-20T01:21:36;11.43;;;3.00;;
10045;SDS011;5063;50.878;4.742;2023-12-20T01:24:02;6.93;;;2.23;;
10045;SDS011;5063;50.878;4.742;2023-12-20T01:26:27;9.37;;;2.67;;
10045;SDS011;5063;50.878;4.742;2023-12-20T01:28:53;7.23;;;2.53;;
10045;SDS011;5063;50.878;4.742;2023-12-20T01:31:19;6.30;;;2.90;;
10045;SDS011;5063;50.878;4.742;2023-12-20T01:33:44;13.50;;;2.70;;
10045;SDS011;5063;50.878;4.742;2023-12-20T01:36:11;13.83;;;3.00;;
10045;SDS011;5063;50.878;4.742;2023-12-20T01:38:36;9.37;;;2.80;;
10045;SDS011;5063;50.878;4.742;2023-12-20T01:41:02;7.53;;;2.67;;
10045;SDS011;5063;50.878;4.742;2023-12-20T01:43:28;11.57;;;2.97;;
10045;SDS011;5063;50.878;4.742;2023-12-20T01:45:55;9.17;;;2.70;;
10045;SDS011;5063;50.878;4.742;2023-12-20T01:48:22;5.40;;;2.90;;
10045;SDS011;5063;50.878;4.742;2023-12-20T01:50:49;11.50;;;3.27;;
10045;SDS011;5063;50.878;4.742;2023-12-20T01:53:16;10.63;;;3.00;;
10045;SDS011;5063;50.878;4.742;2023-12-20T01:55:44;13.30;;;3.33;;
10045;SDS011;5063;50.878;4.742;2023-12-20T01:58:10;12.20;;;3.57;;
10045;SDS011;5063;50.878;4.742;2023-12-20T02:00:37;9.30;;;3.20;;
10045;SDS011;5063;50.878;4.742;2023-12-20T02:03:03;5.80;;;2.77;;
10045;SDS011;5063;50.878;4.742;2023-12-20T02:05:30;8.27;;;2.77;;
10045;SDS011;5063;50.878;4.742;2023-12-20T02:07:56;17.10;;;4.50;;
10045;SDS011;5063;50.878;4.742;2023-12-20T02:10:23;5.20;;;3.23;;
10045;SDS011;5063;50.878;4.742;2023-12-20T02:12:49;15.20;;;3.07;;
10045;SDS011;5063;50.878;4.742;2023-12-20T02:15:15;9.83;;;3.20;;
10045;SDS011;5063;50.878;4.742;2023-12-20T02:17:41;10.63;;;3.40;;
10045;SDS011;5063;50.878;4.742;2023-12-20T02:20:07;14.93;;;3.43;;
10045;SDS011;5063;50.878;4.742;2023-12-20T02:22:33;12.23;;;3.90;;
10045;SDS011;5063;50.878;4.742;2023-12-20T02:24:58;15.17;;;3.67;;
10045;SDS011;5063;50.878;4.742;2023-12-20T02:27:24;13.17;;;3.60;;
10045;SDS011;5063;50.878;4.742;2023-12-20T02:29:50;10.77;;;3.37;;
10045;SDS011;5063;50.878;4.742;2023-12-20T02:32:16;10.60;;;3.40;;
10045;SDS011;5063;50.878;4.742;2023-12-20T02:34:43;12.87;;;3.57;;
10045;SDS011;5063;50.878;4.742;2023-12-20T02:37:09;9.33;;;3.67;;
10045;SDS011;5063;50.878;4.742;2023-12-20T02:39:34;16.23;;;3.40;;
10045;SDS011;5063;50.878;4.742;2023-12-20T02:42:00;16.17;;;4.10;;
10045;SDS011;5063;50.878;4.742;2023-12-20T02:44:26;6.53;;;3.10;;
10045;SDS011;5063;50.878;4.742;2023-12-20T02:46:52;11.93;;;3.30;;
10045;SDS011;5063;50.878;4.742;2023-12-20T02:49:17;10.97;;;3.60;;
10045;SDS011;5063;50.878;4.742;2023-12-20T02:51:43;9.57;;;3.63;;
10045;SDS011;5063;50.878;4.742;2023-12-20T02:54:09;13.43;;;3.97;;
10045;SDS011;5063;50.878;4.742;2023-12-20T02:56:34;10.03;;;3.30;;
10045;SDS011;5063;50.878;4.742;2023-12-20T02:59:00;10.00;;;3.10;;
10045;SDS011;5063;50.878;4.742;2023-12-20T03:01:27;16.37;;;3.93;;
10045;SDS011;5063;50.878;4.742;2023-12-20T03:03:54;13.37;;;3.70;;
10045;SDS011;5063;50.878;4.742;2023-12-20T03:06:20;14.63;;;3.60;;
10045;SDS011;5063;50.878;4.742;2023-12-20T03:08:45;15.17;;;3.67;;
10045;SDS011;5063;50.878;4.742;2023-12-20T03:11:11;10.87;;;3.60;;
10045;SDS011;5063;50.878;4.742;2023-12-20T03:13:37;11.60;;;3.57;;
10045;SDS011;5063;50.878;4.742;2023-12-20T03:16:12;16.30;;;3.50;;
10045;SDS011;5063;50.878;4.742;2023-12-20T03:18:38;12.07;;;3.40;;
10045;SDS011;5063;50.878;4.742;2023-12-20T03:21:05;16.40;;;4.57;;
10045;SDS011;5063;50.878;4.742;2023-12-20T03:23:31;17.93;;;3.97;;
10045;SDS011;5063;50.878;4.742;2023-12-20T03:25:58;12.00;;;3.73;;
10045;SDS011;5063;50.878;4.742;2023-12-20T03:28:25;11.20;;;3.20;;
10045;SDS011;5063;50.878;4.742;2023-12-20T03:30:51;16.00;;;4.27;;
10045;SDS011;5063;50.878;4.742;2023-12-20T03:33:17;14.77;;;3.53;;
10045;SDS011;5063;50.878;4.742;2023-12-20T03:35:43;9.63;;;3.57;;
10045;SDS011;5063;50.878;4.742;2023-12-20T03:38:09;11.73;;;3.60;;
10045;SDS011;5063;50.878;4.742;2023-12-20T03:40:34;11.57;;;3.77;;
10045;SDS011;5063;50.878;4.742;2023-12-20T03:43:00;13.67;;;3.77;;
10045;SDS011;5063;50.878;4.742;2023-12-20T03:45:26;8.97;;;3.53;;
10045;SDS011;5063;50.878;4.742;2023-12-20T03:47:51;14.30;;;3.83;;
10045;SDS011;5063;50.878;4.742;2023-12-20T03:50:24;10.90;;;5.00;;
10045;SDS011;5063;50.878;4.742;2023-12-20T03:52:50;15.00;;;4.30;;
10045;SDS011;5063;50.878;4.742;2023-12-20T03:55:16;13.93;;;4.07;;
10045;SDS011;5063;50.878;4.742;2023-12-20T03:57:42;13.03;;;4.20;;
10045;SDS011;5063;50.878;4.742;2023-12-20T04:00:08;15.87;;;4.57;;
10045;SDS011;5063;50.878;4.742;2023-12-20T04:02:36;14.97;;;4.63;;
10045;SDS011;5063;50.878;4.742;2023-12-20T04:05:02;12.07;;;4.40;;
10045;SDS011;5063;50.878;4.742;2023-12-20T04:07:28;17.17;;;4.17;;
10045;SDS011;5063;50.878;4.742;2023-12-20T04:09:54;11.53;;;4.60;;
10045;SDS011;5063;50.878;4.742;2023-12-20T04:12:20;8.13;;;4.23;;
10045;SDS011;5063;50.878;4.742;2023-12-20T04:14:46;13.63;;;4.27;;
10045;SDS011;5063;50.878;4.742;2023-12-20T04:17:11;14.20;;;3.90;;
10045;SDS011;5063;50.878;4.742;2023-12-20T04:19:37;12.47;;;4.57;;
10045;SDS011;5063;50.878;4.742;2023-12-20T04:22:03;13.60;;;4.30;;
10045;SDS011;5063;50.878;4.742;2023-12-20T04:24:28;16.90;;;4.47;;
10045;SDS011;5063;50.878;4.742;2023-12-20T04:26:54;9.50;;;4.33;;
10045;SDS011;5063;50.878;4.742;2023-12-20T04:29:20;8.37;;;3.57;;
10045;SDS011;5063;50.878;4.742;2023-12-20T04:31:46;8.20;;;3.80;;
10045;SDS011;5063;50.878;4.742;2023-12-20T04:34:11;14.23;;;3.70;;
10045;SDS011;5063;50.878;4.742;2023-12-20T04:36:37;13.63;;;4.23;;
10045;SDS011;5063;50.878;4.742;2023-12-20T04:39:03;11.37;;;4.37;;
10045;SDS011;5063;50.878;4.742;2023-12-20T04:41:28;9.30;;;4.37;;
10045;SDS011;5063;50.878;4.742;2023-12-20T04:43:54;9.27;;;3.37;;
10045;SDS011;5063;50.878;4.742;2023-12-20T04:46:20;13.53;;;4.20;;
10045;SDS011;5063;50.878;4.742;2023-12-20T04:48:46;16.40;;;3.90;;
10045;SDS011;5063;50.878;4.742;2023-12-20T04:51:11;13.93;;;3.90;;
10045;SDS011;5063;50.878;4.742;2023-12-20T04:53:37;16.37;;;4.13;;
10045;SDS011;5063;50.878;4.742;2023-12-20T04:56:03;12.73;;;4.87;;
10045;SDS011;5063;50.878;4.742;2023-12-20T04:58:29;15.23;;;4.13;;
10045;SDS011;5063;50.878;4.742;2023-12-20T05:00:54;19.43;;;4.60;;
10045;SDS011;5063;50.878;4.742;2023-12-20T05:03:20;14.00;;;4.40;;
10045;SDS011;5063;50.878;4.742;2023-12-20T05:05:46;14.90;;;4.70;;
10045;SDS011;5063;50.878;4.742;2023-12-20T05:08:12;14.07;;;4.10;;
10045;SDS011;5063;50.878;4.742;2023-12-20T05:10:37;15.03;;;4.30;;
10045;SDS011;5063;50.878;4.742;2023-12-20T05:13:05;15.33;;;5.07;;
10045;SDS011;5063;50.878;4.742;2023-12-20T05:15:31;13.03;;;3.93;;
10045;SDS011;5063;50.878;4.742;2023-12-20T05:17:56;15.90;;;4.27;;
10045;SDS011;5063;50.878;4.742;2023-12-20T05:20:22;14.63;;;3.83;;
10045;SDS011;5063;50.878;4.742;2023-12-20T05:22:48;11.17;;;3.77;;
10045;SDS011;5063;50.878;4.742;2023-12-20T05:25:14;11.87;;;3.57;;
10045;SDS011;5063;50.878;4.742;2023-12-20T05:27:39;16.50;;;3.87;;
10045;SDS011;5063;50.878;4.742;2023-12-20T05:30:05;18.57;;;5.00;;
10045;SDS011;5063;50.878;4.742;2023-12-20T05:32:32;13.40;;;3.40;;
10045;SDS011;5063;50.878;4.742;2023-12-20T05:34:57;10.70;;;3.90;;
10045;SDS011;5063;50.878;4.742;2023-12-20T05:37:23;15.87;;;3.50;;
10045;SDS011;5063;50.878;4.742;2023-12-20T05:39:49;15.60;;;3.70;;
10045;SDS011;5063;50.878;4.742;2023-12-20T05:42:14;12.87;;;4.17;;
10045;SDS011;5063;50.878;4.742;2023-12-20T05:44:40;13.40;;;5.00;;
10045;SDS011;5063;50.878;4.742;2023-12-20T05:47:06;17.40;;;4.37;;
10045;SDS011;5063;50.878;4.742;2023-12-20T05:49:31;12.50;;;3.30;;
10045;SDS011;5063;50.878;4.742;2023-12-20T05:51:57;14.90;;;3.90;;
10045;SDS011;5063;50.878;4.742;2023-12-20T05:54:23;17.43;;;4.10;;
10045;SDS011;5063;50.878;4.742;2023-12-20T05:56:48;16.17;;;4.70;;
10045;SDS011;5063;50.878;4.742;2023-12-20T05:59:15;17.07;;;3.77;;
10045;SDS011;5063;50.878;4.742;2023-12-20T06:01:41;16.10;;;3.43;;
10045;SDS011;5063;50.878;4.742;2023-12-20T06:04:07;13.47;;;3.67;;
10045;SDS011;5063;50.878;4.742;2023-12-20T06:06:32;17.77;;;3.70;;
10045;SDS011;5063;50.878;4.742;2023-12-20T06:08:58;13.53;;;4.33;;
10045;SDS011;5063;50.878;4.742;2023-12-20T06:11:24;9.20;;;4.03;;
10045;SDS011;5063;50.878;4.742;2023-12-20T06:13:51;11.67;;;3.90;;
10045;SDS011;5063;50.878;4.742;2023-12-20T06:16:18;14.47;;;4.93;;
10045;SDS011;5063;50.878;4.742;2023-12-20T06:18:44;19.43;;;4.90;;
10045;SDS011;5063;50.878;4.742;2023-12-20T06:21:10;12.23;;;4.57;;
10045;SDS011;5063;50.878;4.742;2023-12-20T06:23:38;12.77;;;4.50;;
10045;SDS011;5063;50.878;4.742;2023-12-20T06:26:04;13.47;;;4.47;;
10045;SDS011;5063;50.878;4.742;2023-12-20T06:28:29;17.80;;;4.23;;
10045;SDS011;5063;50.878;4.742;2023-12-20T06:30:55;14.90;;;4.43;;
10045;SDS011;5063;50.878;4.742;2023-12-20T06:33:22;9.07;;;3.90;;
10045;SDS011;5063;50.878;4.742;2023-12-20T06:35:48;19.53;;;4.47;;
10045;SDS011;5063;50.878;4.742;2023-12-20T06:38:14;9.20;;;3.83;;
10045;SDS011;5063;50.878;4.742;2023-12-20T06:40:40;10.33;;;3.87;;
10045;SDS011;5063;50.878;4.742;2023-12-20T06:43:07;12.43;;;3.67;;
10045;SDS011;5063;50.878;4.742;2023-12-20T06:45:33;11.97;;;3.80;;
10045;SDS011;5063;50.878;4.742;2023-12-20T06:47:59;13.83;;;3.73;;
10045;SDS011;5063;50.878;4.742;2023-12-20T06:50:25;15.33;;;4.67;;
10045;SDS011;5063;50.878;4.742;2023-12-20T06:52:51;17.27;;;4.37;;
10045;SDS011;5063;50.878;4.742;2023-12-20T06:55:17;15.23;;;3.30;;
10045;SDS011;5063;50.878;4.742;2023-12-20T06:57:43;14.93;;;4.23;;
10045;SDS011;5063;50.878;4.742;2023-12-20T07:00:10;20.43;;;4.87;;
10045;SDS011;5063;50.878;4.742;2023-12-20T07:02:36;11.23;;;3.73;;
10045;SDS011;5063;50.878;4.742;2023-12-20T07:05:02;10.73;;;3.43;;
10045;SDS011;5063;50.878;4.742;2023-12-20T07:07:28;17.03;;;3.67;;
10045;SDS011;5063;50.878;4.742;2023-12-20T07:09:54;13.17;;;3.40;;
10045;SDS011;5063;50.878;4.742;2023-12-20T07:12:20;16.83;;;3.30;;
10045;SDS011;5063;50.878;4.742;2023-12-20T07:14:46;15.07;;;3.10;;
10045;SDS011;5063;50.878;4.742;2023-12-20T07:17:12;11.43;;;3.40;;
10045;SDS011;5063;50.878;4.742;2023-12-20T07:19:39;9.73;;;3.23;;
10045;SDS011;5063;50.878;4.742;2023-12-20T07:22:06;12.37;;;3.67;;
10045;SDS011;5063;50.878;4.742;2023-12-20T07:24:32;18.30;;;4.00;;
10045;SDS011;5063;50.878;4.742;2023-12-20T07:26:59;18.93;;;3.60;;
10045;SDS011;5063;50.878;4.742;2023-12-20T07:29:25;14.00;;;3.60;;
10045;SDS011;5063;50.878;4.742;2023-12-20T07:31:52;12.63;;;3.50;;
10045;SDS011;5063;50.878;4.742;2023-12-20T07:34:19;12.27;;;2.80;;
10045;SDS011;5063;50.878;4.742;2023-12-20T07:36:45;13.63;;;3.27;;
10045;SDS011;5063;50.878;4.742;2023-12-20T07:39:11;9.83;;;3.47;;
10045;SDS011;5063;50.878;4.742;2023-12-20T07:41:37;14.83;;;3.30;;
10045;SDS011;5063;50.878;4.742;2023-12-20T07:44:04;8.67;;;2.97;;
10045;SDS011;5063;50.878;4.742;2023-12-20T07:46:30;8.70;;;2.70;;
10045;SDS011;5063;50.878;4.742;2023-12-20T07:48:55;8.50;;;2.70;;
10045;SDS011;5063;50.878;4.742;2023-12-20T07:51:21;10.27;;;3.20;;
10045;SDS011;5063;50.878;4.742;2023-12-20T07:53:47;14.30;;;3.63;;
10045;SDS011;5063;50.878;4.742;2023-12-20T07:56:16;16.57;;;3.53;;
10045;SDS011;5063;50.878;4.742;2023-12-20T07:58:43;9.50;;;3.00;;
10045;SDS011;5063;50.878;4.742;2023-12-20T08:01:10;19.00;;;3.27;;
10045;SDS011;5063;50.878;4.742;2023-12-20T08:03:36;10.90;;;3.43;;
10045;SDS011;5063;50.878;4.742;2023-12-20T08:06:02;9.73;;;2.80;;
10045;SDS011;5063;50.878;4.742;2023-12-20T08:08:28;11.57;;;3.90;;
10045;SDS011;5063;50.878;4.742;2023-12-20T08:10:53;17.37;;;3.87;;
10045;SDS011;5063;50.878;4.742;2023-12-20T08:13:19;8.20;;;2.87;;
10045;SDS011;5063;50.878;4.742;2023-12-20T08:15:50;17.50;;;3.17;;
10045;SDS011;5063;50.878;4.742;2023-12-20T08:18:16;12.50;;;3.17;;
10045;SDS011;5063;50.878;4.742;2023-12-20T08:20:41;11.03;;;3.03;;
10045;SDS011;5063;50.878;4.742;2023-12-20T08:23:07;11.03;;;2.83;;
10045;SDS011;5063;50.878;4.742;2023-12-20T08:25:33;12.97;;;3.43;;
10045;SDS011;5063;50.878;4.742;2023-12-20T08:27:58;12.63;;;3.97;;
10045;SDS011;5063;50.878;4.742;2023-12-20T08:30:24;8.43;;;2.87;;
10045;SDS011;5063;50.878;4.742;2023-12-20T08:32:50;16.83;;;3.13;;
10045;SDS011;5063;50.878;4.742;2023-12-20T08:35:16;7.97;;;2.90;;
10045;SDS011;5063;50.878;4.742;2023-12-20T08:37:43;10.83;;;2.90;;
10045;SDS011;5063;50.878;4.742;2023-12-20T08:40:08;12.63;;;3.50;;
10045;SDS011;5063;50.878;4.742;2023-12-20T08:42:35;10.33;;;3.17;;
10045;SDS011;5063;50.878;4.742;2023-12-20T08:45:00;15.03;;;3.17;;
10045;SDS011;5063;50.878;4.742;2023-12-20T08:47:26;9.10;;;3.17;;
10045;SDS011;5063;50.878;4.742;2023-12-20T08:49:52;5.87;;;2.80;;
10045;SDS011;5063;50.878;4.742;2023-12-20T08:52:23;14.60;;;3.53;;
10045;SDS011;5063;50.878;4.742;2023-12-20T08:54:49;11.60;;;3.30;;
10045;SDS011;5063;50.878;4.742;2023-12-20T08:57:18;9.47;;;3.03;;
10045;SDS011;5063;50.878;4.742;2023-12-20T08:59:48;13.50;;;3.03;;
10045;SDS011;5063;50.878;4.742;2023-12-20T09:02:15;13.00;;;3.00;;
10045;SDS011;5063;50.878;4.742;2023-12-20T09:04:41;18.30;;;3.43;;
10045;SDS011;5063;50.878;4.742;2023-12-20T09:07:07;11.03;;;3.20;;
10045;SDS011;5063;50.878;4.742;2023-12-20T09:09:46;7.63;;;2.30;;
10045;SDS011;5063;50.878;4.742;2023-12-20T09:12:12;11.17;;;3.23;;
10045;SDS011;5063;50.878;4.742;2023-12-20T09:14:38;13.23;;;2.57;;
10045;SDS011;5063;50.878;4.742;2023-12-20T09:17:03;17.27;;;3.67;;
10045;SDS011;5063;50.878;4.742;2023-12-20T09:19:29;14.97;;;2.67;;
10045;SDS011;5063;50.878;4.742;2023-12-20T09:21:55;10.87;;;3.47;;
10045;SDS011;5063;50.878;4.742;2023-12-20T09:24:21;11.77;;;3.20;;
10045;SDS011;5063;50.878;4.742;2023-12-20T09:26:46;6.63;;;2.70;;
10045;SDS011;5063;50.878;4.742;2023-12-20T09:29:12;9.63;;;2.70;;
10045;SDS011;5063;50.878;4.742;2023-12-20T09:31:40;8.47;;;2.70;;
10045;SDS011;5063;50.878;4.742;2023-12-20T09:34:09;12.57;;;2.90;;
10045;SDS011;5063;50.878;4.742;2023-12-20T09:36:34;10.87;;;3.53;;
10045;SDS011;5063;50.878;4.742;2023-12-20T09:39:01;11.07;;;3.00;;
10045;SDS011;5063;50.878;4.742;2023-12-20T09:41:28;7.20;;;2.73;;
10045;SDS011;5063;50.878;4.742;2023-12-20T09:43:57;8.20;;;2.23;;
10045;SDS011;5063;50.878;4.742;2023-12-20T09:46:25;10.07;;;2.87;;
10045;SDS011;5063;50.878;4.742;2023-12-20T09:48:55;16.23;;;2.97;;
10045;SDS011;5063;50.878;4.742;2023-12-20T09:51:21;7.43;;;2.73;;
10045;SDS011;5063;50.878;4.742;2023-12-20T09:53:47;11.77;;;2.77;;
10045;SDS011;5063;50.878;4.742;2023-12-20T09:56:15;10.50;;;3.20;;
10045;SDS011;5063;50.878;4.742;2023-12-20T09:58:41;12.13;;;3.30;;
10045;SDS011;5063;50.878;4.742;2023-12-20T10:01:07;11.00;;;3.00;;
10045;SDS011;5063;50.878;4.742;2023-12-20T10:03:33;10.57;;;2.97;;
10045;SDS011;5063;50.878;4.742;2023-12-20T10:05:59;15.63;;;3.53;;
10045;SDS011;5063;50.878;4.742;2023-12-20T10:08:26;8.77;;;3.03;;
10045;SDS011;5063;50.878;4.742;2023-12-20T10:10:51;8.03;;;2.90;;
10045;SDS011;5063;50.878;4.742;2023-12-20T10:13:17;10.70;;;2.60;;
10045;SDS011;5063;50.878;4.742;2023-12-20T10:15:43;7.57;;;2.30;;
10045;SDS011;5063;50.878;4.742;2023-12-20T10:18:09;8.13;;;3.20;;
10045;SDS011;5063;50.878;4.742;2023-12-20T10:20:35;11.93;;;3.97;;
10045;SDS011;5063;50.878;4.742;2023-12-20T10:23:01;9.03;;;3.10;;
10045;SDS011;5063;50.878;4.742;2023-12-20T10:25:27;11.50;;;2.47;;
10045;SDS011;5063;50.878;4.742;2023-12-20T10:28:15;10.17;;;3.40;;
10045;SDS011;5063;50.878;4.742;2023-12-20T10:30:47;11.10;;;3.63;;
10045;SDS011;5063;50.878;4.742;2023-12-20T10:33:13;14.13;;;3.37;;
10045;SDS011;5063;50.878;4.742;2023-12-20T10:35:48;8.93;;;3.07;;
10045;SDS011;5063;50.878;4.742;2023-12-20T10:38:13;7.63;;;2.93;;
10045;SDS011;5063;50.878;4.742;2023-12-20T10:40:40;10.03;;;2.90;;
10045;SDS011;5063;50.878;4.742;2023-12-20T10:43:06;7.13;;;2.73;;
10045;SDS011;5063;50.878;4.742;2023-12-20T10:45:33;10.40;;;2.67;;
10045;SDS011;5063;50.878;4.742;2023-12-20T10:47:59;14.23;;;3.53;;
10045;SDS011;5063;50.878;4.742;2023-12-20T10:50:27;9.57;;;3.53;;
10045;SDS011;5063;50.878;4.742;2023-12-20T10:52:55;7.23;;;3.03;;
10045;SDS011;5063;50.878;4.742;2023-12-20T10:55:24;12.77;;;3.20;;
10045;SDS011;5063;50.878;4.742;2023-12-20T10:57:50;6.90;;;2.97;;
10045;SDS011;5063;50.878;4.742;2023-12-20T11:00:19;8.70;;;2.93;;
10045;SDS011;5063;50.878;4.742;2023-12-20T11:02:49;9.43;;;2.77;;
10045;SDS011;5063;50.878;4.742;2023-12-20T11:07:52;6.60;;;2.60;;
10045;SDS011;5063;50.878;4.742;2023-12-20T11:10:31;7.17;;;2.77;;
10045;SDS011;5063;50.878;4.742;2023-12-20T11:13:10;7.77;;;2.97;;
10045;SDS011;5063;50.878;4.742;2023-12-20T11:15:42;10.37;;;3.00;;
10045;SDS011;5063;50.878;4.742;2023-12-20T11:18:08;15.47;;;3.63;;
10045;SDS011;5063;50.878;4.742;2023-12-20T11:20:40;13.53;;;3.23;;
10045;SDS011;5063;50.878;4.742;2023-12-20T11:23:07;8.33;;;2.37;;
10045;SDS011;5063;50.878;4.742;2023-12-20T11:28:13;10.63;;;3.20;;
10045;SDS011;5063;50.878;4.742;2023-12-20T11:33:15;4.87;;;2.13;;
10045;SDS011;5063;50.878;4.742;2023-12-20T11:35:41;13.63;;;3.40;;
10045;SDS011;5063;50.878;4.742;2023-12-20T11:38:08;8.80;;;2.77;;
10045;SDS011;5063;50.878;4.742;2023-12-20T11:40:35;8.30;;;2.60;;
10045;SDS011;5063;50.878;4.742;2023-12-20T11:43:02;17.77;;;3.70;;
10045;SDS011;5063;50.878;4.742;2023-12-20T11:45:29;9.77;;;3.33;;
10045;SDS011;5063;50.878;4.742;2023-12-20T11:47:56;8.90;;;2.90;;
10045;SDS011;5063;50.878;4.742;2023-12-20T11:50:22;9.80;;;3.53;;
10045;SDS011;5063;50.878;4.742;2023-12-20T11:52:49;9.23;;;2.77;;
10045;SDS011;5063;50.878;4.742;2023-12-20T11:55:17;12.27;;;3.10;;
10045;SDS011;5063;50.878;4.742;2023-12-20T11:57:43;14.90;;;3.27;;
10045;SDS011;5063;50.878;4.742;2023-12-20T12:00:10;10.10;;;3.23;;
10045;SDS011;5063;50.878;4.742;2023-12-20T12:02:36;13.43;;;3.30;;
10045;SDS011;5063;50.878;4.742;2023-12-20T12:05:01;12.27;;;3.30;;
10045;SDS011;5063;50.878;4.742;2023-12-20T12:07:30;12.17;;;3.30;;
10045;SDS011;5063;50.878;4.742;2023-12-20T12:09:57;10.53;;;2.80;;
10045;SDS011;5063;50.878;4.742;2023-12-20T12:12:23;12.43;;;3.37;;
10045;SDS011;5063;50.878;4.742;2023-12-20T12:14:50;12.77;;;2.70;;
10045;SDS011;5063;50.878;4.742;2023-12-20T12:17:16;12.53;;;3.13;;
10045;SDS011;5063;50.878;4.742;2023-12-20T12:19:42;7.97;;;2.73;;
10045;SDS011;5063;50.878;4.742;2023-12-20T12:22:12;10.67;;;2.93;;
10045;SDS011;5063;50.878;4.742;2023-12-20T12:24:40;6.43;;;3.20;;
10045;SDS011;5063;50.878;4.742;2023-12-20T12:27:07;6.67;;;2.77;;
10045;SDS011;5063;50.878;4.742;2023-12-20T12:29:33;12.57;;;3.07;;
10045;SDS011;5063;50.878;4.742;2023-12-20T12:32:00;9.20;;;3.50;;
10045;SDS011;5063;50.878;4.742;2023-12-20T12:34:29;12.73;;;3.37;;
10045;SDS011;5063;50.878;4.742;2023-12-20T12:36:56;15.40;;;3.20;;
10045;SDS011;5063;50.878;4.742;2023-12-20T12:39:23;10.10;;;3.33;;
10045;SDS011;5063;50.878;4.742;2023-12-20T12:41:52;10.33;;;3.23;;
10045;SDS011;5063;50.878;4.742;2023-12-20T12:44:18;20.87;;;4.03;;
10045;SDS011;5063;50.878;4.742;2023-12-20T12:46:45;11.07;;;3.67;;
10045;SDS011;5063;50.878;4.742;2023-12-20T12:49:11;9.47;;;2.97;;
10045;SDS011;5063;50.878;4.742;2023-12-20T12:51:37;7.83;;;3.20;;
10045;SDS011;5063;50.878;4.742;2023-12-20T12:54:02;9.37;;;2.90;;
10045;SDS011;5063;50.878;4.742;2023-12-20T12:56:29;9.97;;;3.13;;
10045;SDS011;5063;50.878;4.742;2023-12-20T12:58:55;9.53;;;3.30;;
10045;SDS011;5063;50.878;4.742;2023-12-20T13:01:20;10.40;;;3.13;;
10045;SDS011;5063;50.878;4.742;2023-12-20T13:03:46;10.43;;;3.17;;
10045;SDS011;5063;50.878;4.742;2023-12-20T13:06:12;13.17;;;3.23;;
10045;SDS011;5063;50.878;4.742;2023-12-20T13:08:38;12.23;;;3.23;;
10045;SDS011;5063;50.878;4.742;2023-12-20T13:11:04;13.27;;;3.03;;
10045;SDS011;5063;50.878;4.742;2023-12-20T13:13:30;14.77;;;3.47;;
10045;SDS011;5063;50.878;4.742;2023-12-20T13:15:56;8.87;;;3.67;;
10045;SDS011;5063;50.878;4.742;2023-12-20T13:18:22;12.63;;;4.20;;
10045;SDS011;5063;50.878;4.742;2023-12-20T13:20:48;14.00;;;4.63;;
10045;SDS011;5063;50.878;4.742;2023-12-20T13:23:14;16.50;;;5.17;;
10045;SDS011;5063;50.878;4.742;2023-12-20T13:25:40;16.23;;;4.73;;
10045;SDS011;5063;50.878;4.742;2023-12-20T13:28:07;11.03;;;4.70;;
10045;SDS011;5063;50.878;4.742;2023-12-20T13:30:33;10.23;;;4.33;;
10045;SDS011;5063;50.878;4.742;2023-12-20T13:32:59;15.77;;;4.80;;
10045;SDS011;5063;50.878;4.742;2023-12-20T13:35:25;11.90;;;4.97;;
10045;SDS011;5063;50.878;4.742;2023-12-20T13:37:51;13.43;;;4.93;;
10045;SDS011;5063;50.878;4.742;2023-12-20T13:40:17;17.93;;;4.37;;
10045;SDS011;5063;50.878;4.742;2023-12-20T13:42:43;13.60;;;4.37;;
10045;SDS011;5063;50.878;4.742;2023-12-20T13:45:08;17.00;;;5.10;;
10045;SDS011;5063;50.878;4.742;2023-12-20T13:47:35;17.23;;;4.30;;
10045;SDS011;5063;50.878;4.742;2023-12-20T13:50:00;15.13;;;3.87;;
10045;SDS011;5063;50.878;4.742;2023-12-20T13:52:27;15.17;;;4.17;;
10045;SDS011;5063;50.878;4.742;2023-12-20T13:54:53;10.33;;;3.57;;
10045;SDS011;5063;50.878;4.742;2023-12-20T13:57:18;7.53;;;2.90;;
10045;SDS011;5063;50.878;4.742;2023-12-20T13:59:44;11.47;;;2.87;;
10045;SDS011;5063;50.878;4.742;2023-12-20T14:02:10;9.37;;;3.10;;
10045;SDS011;5063;50.878;4.742;2023-12-20T14:04:35;8.43;;;2.80;;
10045;SDS011;5063;50.878;4.742;2023-12-20T14:07:03;12.67;;;3.00;;
10045;SDS011;5063;50.878;4.742;2023-12-20T14:09:29;12.50;;;3.23;;
10045;SDS011;5063;50.878;4.742;2023-12-20T14:11:55;7.40;;;2.87;;
10045;SDS011;5063;50.878;4.742;2023-12-20T14:14:21;15.83;;;3.73;;
10045;SDS011;5063;50.878;4.742;2023-12-20T14:16:46;11.63;;;3.13;;
10045;SDS011;5063;50.878;4.742;2023-12-20T14:19:12;6.10;;;2.73;;
10045;SDS011;5063;50.878;4.742;2023-12-20T14:21:38;9.00;;;3.63;;
10045;SDS011;5063;50.878;4.742;2023-12-20T14:24:04;14.37;;;3.53;;
10045;SDS011;5063;50.878;4.742;2023-12-20T14:26:30;9.67;;;2.67;;
10045;SDS011;5063;50.878;4.742;2023-12-20T14:28:56;11.57;;;3.33;;
10045;SDS011;5063;50.878;4.742;2023-12-20T14:31:22;10.13;;;2.77;;
10045;SDS011;5063;50.878;4.742;2023-12-20T14:33:50;8.67;;;3.13;;
10045;SDS011;5063;50.878;4.742;2023-12-20T14:36:18;12.37;;;3.27;;
10045;SDS011;5063;50.878;4.742;2023-12-20T14:38:45;8.27;;;2.87;;
10045;SDS011;5063;50.878;4.742;2023-12-20T14:41:12;12.17;;;3.60;;
10045;SDS011;5063;50.878;4.742;2023-12-20T14:43:38;15.73;;;4.20;;
10045;SDS011;5063;50.878;4.742;2023-12-20T14:46:03;10.93;;;3.40;;
10045;SDS011;5063;50.878;4.742;2023-12-20T14:48:30;11.10;;;3.77;;
10045;SDS011;5063;50.878;4.742;2023-12-20T14:50:57;13.53;;;2.77;;
10045;SDS011;5063;50.878;4.742;2023-12-20T14:53:24;11.50;;;3.20;;
10045;SDS011;5063;50.878;4.742;2023-12-20T14:55:50;16.53;;;3.23;;